Aérodrome :
LOGIN :

S'inscrire | Disclaimer

   EN    FR    IT 

 










Légende :    VFR   VFR Marginal   IFR   IFR Intensif   IFR Très Intensif
Visi : 
Plafond : 
>= 8 km
>= 3000ft
5 à 8 km
1000 à 3000 ft
1500m à 5 km
500 à 1000 ft
800 à 1500m
200 à 500 ft
< 800m
< 200 ft
Symboles :   Orages  Brouillard  Fortes neiges  Fortes précipitations  Vent > 20 kt
SIGMETs :   Divers  Orages  Givrage  Turbulence  Onde Orograph.  Cendres Volcan.







- Altitude de l'aérodrome : 3 ft
- Code IATA : LWR


EHLW - Leuuwarden Air Base

DERNIER METAR :
  • 181555Z AUTO 23017G28KT 9999 BKN028 BKN031 20/15 Q1011 BLU

METARs EXPIRÉS :
  • 181525Z AUTO 24021G32KT 200V260 9999 FEW042 21/15 Q1010 BLU
  • 181455Z AUTO 24024KT 210V270 9999 NCD 21/15 Q1010 BLU
  • 181425Z AUTO 23021G31KT 9999 SCT032 SCT037 22/15 Q1010 BLU 23020G36KT 9999 SCT030 RMK R23
  • 181355Z AUTO 23023G33KT 200V260 9999 FEW030 22/15 Q1010 BLU 23020G36KT 9999 SCT030 RMK R23
  • 181325Z AUTO 22024G34KT 200V260 9999 FEW029 22/15 Q1010 BLU 23020G36KT 9999 SCT030 RMK R23

TAF TAF EHLW
Valide du 18 à 13h jusqu'au 19 à 01h UTC


181233Z 1813/1901 22018KT 9999 SCT030
TEMPO 1813/1818 23024G35KT
BECMG 1819/1821 21008KT
Pas de NOTAMs connus pour ce terrain.



MET'MAP, la Météo Aéronautique d'un coup d'oeil ! - Copyright ORBIFLY Décembre 2007 - Disclaimer

ORBIFLY MET'MAP TEAM :

Programmation & Développement : Alexandra Zaïnal
Conception & Développement : Baudouin d'Aumeries
Co-Programmation & Développement : Marc-Olivier Méhu
Soutien technique & logistique : Manuel Goepfert

Contact : metmap@orbifly.com




SOURCES & CREDITS :

   NOAA